createdAt,value
2023-03-19T00:00:41.851Z,15.10
2023-03-19T00:01:42.858Z,17.50
2023-03-19T00:02:42.350Z,19.90
2023-03-19T00:03:42.671Z,27.70
2023-03-19T00:04:42.940Z,25.80
2023-03-19T00:05:43.324Z,25.10
2023-03-19T00:06:43.526Z,21.10
2023-03-19T00:07:43.933Z,22.20
2023-03-19T00:08:44.131Z,21.70
2023-03-19T00:09:44.402Z,18.00
2023-03-19T00:10:44.755Z,16.60
2023-03-19T00:11:45.158Z,17.30
2023-03-19T00:12:45.324Z,17.60
2023-03-19T00:13:46.585Z,18.00
2023-03-19T00:14:46.031Z,18.40
2023-03-19T00:15:46.248Z,24.30
2023-03-19T00:16:46.780Z,24.30
2023-03-19T00:17:46.850Z,24.10
2023-03-19T00:18:47.150Z,23.30
2023-03-19T00:19:47.496Z,22.90
2023-03-19T00:20:47.741Z,22.30
2023-03-19T00:21:47.965Z,23.00
2023-03-19T00:22:48.223Z,21.50
2023-03-19T00:23:48.467Z,18.20
2023-03-19T00:24:48.750Z,16.00
2023-03-19T00:25:49.052Z,17.10
2023-03-19T00:26:49.361Z,18.20
2023-03-19T00:27:49.690Z,17.10
2023-03-19T00:28:49.966Z,18.20
2023-03-19T00:29:50.321Z,15.80
2023-03-19T00:30:50.637Z,15.00
2023-03-19T00:31:50.860Z,17.10
2023-03-19T00:32:51.249Z,16.20
2023-03-19T00:33:51.513Z,16.60
2023-03-19T00:34:51.876Z,16.80
2023-03-19T00:35:52.176Z,15.00
2023-03-19T00:36:52.486Z,17.10
2023-03-19T00:37:52.784Z,16.10
2023-03-19T00:38:53.075Z,15.70
2023-03-19T00:39:53.381Z,17.00
2023-03-19T00:40:53.669Z,17.50
2023-03-19T00:41:54.006Z,18.00
2023-03-19T00:42:54.318Z,16.80
2023-03-19T00:43:54.633Z,16.80
2023-03-19T00:44:54.816Z,17.50
2023-03-19T00:45:55.139Z,15.50
2023-03-19T00:46:55.414Z,15.90
2023-03-19T00:47:55.671Z,15.30
2023-03-19T00:48:56.033Z,17.50
2023-03-19T00:49:56.348Z,15.50
2023-03-19T00:50:56.643Z,15.10
2023-03-19T00:51:56.973Z,15.80
2023-03-19T00:52:57.279Z,16.50
2023-03-19T00:53:57.606Z,14.40
2023-03-19T00:54:57.847Z,15.00
2023-03-19T00:55:58.182Z,14.30
2023-03-19T00:56:58.421Z,15.70
2023-03-19T00:57:58.724Z,14.70
2023-03-19T00:58:59.080Z,15.00
2023-03-19T00:59:59.362Z,15.50
2023-03-19T01:00:59.809Z,15.60
2023-03-19T01:02:00.878Z,15.90
2023-03-19T01:03:01.097Z,15.90
2023-03-19T01:04:00.593Z,12.90
2023-03-19T01:05:00.824Z,14.40
2023-03-19T01:06:01.202Z,15.30
2023-03-19T01:07:06.543Z,13.40
2023-03-19T01:08:01.650Z,13.70
2023-03-19T01:09:02.036Z,14.50
2023-03-19T01:10:02.244Z,14.70
2023-03-19T01:11:02.492Z,14.80
2023-03-19T01:12:02.890Z,14.70
2023-03-19T01:13:03.105Z,14.90
2023-03-19T01:14:03.423Z,15.80
2023-03-19T01:15:03.737Z,15.40
2023-03-19T01:16:04.016Z,17.90
2023-03-19T01:17:04.355Z,16.90
2023-03-19T01:18:04.620Z,16.00
2023-03-19T01:19:04.983Z,13.60
2023-03-19T01:20:05.231Z,13.70
2023-03-19T01:21:05.582Z,14.30
2023-03-19T01:22:05.796Z,13.50
2023-03-19T01:23:06.135Z,14.40
2023-03-19T01:24:06.455Z,16.40
2023-03-19T01:25:06.753Z,14.00
2023-03-19T01:26:07.117Z,13.50
2023-03-19T01:27:07.400Z,14.90
2023-03-19T01:28:07.728Z,14.00
2023-03-19T01:29:08.023Z,16.00
2023-03-19T01:30:08.317Z,13.30
2023-03-19T01:31:08.630Z,16.20
2023-03-19T01:32:08.988Z,14.60
2023-03-19T01:33:09.345Z,15.70
2023-03-19T01:34:09.518Z,14.70
2023-03-19T01:35:09.826Z,15.00
2023-03-19T01:36:10.110Z,13.90
2023-03-19T01:37:10.398Z,16.30
2023-03-19T01:38:10.676Z,14.30
2023-03-19T01:39:11.026Z,16.30
2023-03-19T01:40:11.337Z,15.50
2023-03-19T01:41:11.679Z,14.10
2023-03-19T01:42:11.956Z,13.20
2023-03-19T01:43:12.233Z,14.10
2023-03-19T01:44:12.616Z,14.10
2023-03-19T01:45:12.865Z,14.10
2023-03-19T01:46:13.224Z,13.20
2023-03-19T01:47:13.513Z,14.70
2023-03-19T01:48:13.764Z,15.30
2023-03-19T01:49:14.088Z,15.20
2023-03-19T01:50:14.388Z,14.50
2023-03-19T01:51:14.692Z,14.20
2023-03-19T01:52:15.013Z,14.50
2023-03-19T01:53:15.327Z,13.00
2023-03-19T01:54:15.601Z,15.40
2023-03-19T01:55:15.846Z,20.10
2023-03-19T01:56:16.148Z,16.40
2023-03-19T01:57:16.461Z,15.90
2023-03-19T01:58:16.763Z,12.90
2023-03-19T01:59:17.023Z,14.90
2023-03-19T02:00:17.309Z,15.90
2023-03-19T02:01:17.803Z,14.50
2023-03-19T02:02:18.816Z,14.20
2023-03-19T02:03:19.041Z,16.70
2023-03-19T02:04:18.687Z,14.40
2023-03-19T02:05:18.745Z,14.50
2023-03-19T02:06:19.029Z,15.10
2023-03-19T02:07:19.363Z,14.80
2023-03-19T02:08:19.768Z,15.40
2023-03-19T02:09:19.952Z,16.50
2023-03-19T02:10:20.274Z,13.90
2023-03-19T02:11:20.603Z,15.50
2023-03-19T02:12:20.795Z,15.10
2023-03-19T02:13:21.185Z,26.20
2023-03-19T02:14:21.395Z,13.70
2023-03-19T02:15:21.780Z,13.20
2023-03-19T02:16:22.059Z,14.90
2023-03-19T02:17:22.248Z,13.50
2023-03-19T02:18:22.549Z,14.90
2023-03-19T02:19:22.818Z,13.10
2023-03-19T02:20:23.092Z,14.70
2023-03-19T02:21:23.375Z,14.40
2023-03-19T02:22:23.672Z,12.00
2023-03-19T02:23:23.980Z,15.40
2023-03-19T02:24:24.273Z,14.00
2023-03-19T02:25:24.549Z,13.50
2023-03-19T02:26:24.877Z,14.40
2023-03-19T02:27:25.148Z,15.20
2023-03-19T02:28:25.399Z,15.30
2023-03-19T02:29:25.669Z,14.20
2023-03-19T02:30:26.044Z,13.90
2023-03-19T02:31:26.376Z,15.60
2023-03-19T02:32:26.573Z,13.60
2023-03-19T02:33:27.288Z,13.60
2023-03-19T02:34:27.187Z,16.10
2023-03-19T02:35:27.375Z,13.20
2023-03-19T02:36:27.653Z,16.70
2023-03-19T02:37:27.936Z,12.70
2023-03-19T02:38:28.306Z,15.90
2023-03-19T02:39:28.887Z,13.90
2023-03-19T02:40:28.897Z,14.60
2023-03-19T02:41:29.173Z,14.60
2023-03-19T02:42:29.461Z,13.80
2023-03-19T02:43:29.844Z,14.00
2023-03-19T02:44:30.169Z,13.20
2023-03-19T02:45:30.454Z,14.80
2023-03-19T02:46:30.817Z,12.90
2023-03-19T02:47:30.980Z,17.70
2023-03-19T02:48:31.280Z,13.70
2023-03-19T02:49:31.523Z,14.30
2023-03-19T02:50:32.041Z,15.80
2023-03-19T02:51:32.049Z,13.70
2023-03-19T02:52:32.332Z,14.00
2023-03-19T02:53:32.716Z,14.70
2023-03-19T02:54:33.015Z,14.20
2023-03-19T02:55:33.291Z,12.80
2023-03-19T02:56:33.589Z,14.40
2023-03-19T02:57:33.933Z,14.00
2023-03-19T02:58:34.170Z,12.90
2023-03-19T02:59:35.339Z,17.30
2023-03-19T03:00:35.304Z,13.90
2023-03-19T03:01:35.077Z,13.50
2023-03-19T03:02:35.414Z,13.90
2023-03-19T03:03:35.721Z,14.30
2023-03-19T03:04:36.001Z,14.30
2023-03-19T03:05:36.239Z,15.50
2023-03-19T03:06:36.590Z,16.10
2023-03-19T03:07:36.873Z,13.30
2023-03-19T03:08:37.218Z,14.10
2023-03-19T03:09:37.462Z,13.40
2023-03-19T03:10:37.797Z,16.00
2023-03-19T03:11:38.134Z,40.50
2023-03-19T03:12:38.346Z,13.80
2023-03-19T03:13:38.634Z,13.30
2023-03-19T03:14:38.916Z,14.30
2023-03-19T03:15:39.244Z,13.00
2023-03-19T03:16:39.691Z,13.90
2023-03-19T03:17:39.838Z,13.40
2023-03-19T03:18:40.145Z,12.70
2023-03-19T03:19:40.422Z,15.00
2023-03-19T03:20:40.727Z,13.60
2023-03-19T03:21:41.042Z,13.40
2023-03-19T03:22:41.323Z,12.40
2023-03-19T03:23:41.616Z,14.30
2023-03-19T03:24:41.878Z,12.90
2023-03-19T03:25:42.203Z,12.70
2023-03-19T03:26:42.531Z,13.70
2023-03-19T03:27:42.876Z,12.70
2023-03-19T03:28:43.119Z,16.20
2023-03-19T03:29:43.465Z,13.70
2023-03-19T03:30:43.828Z,15.30
2023-03-19T03:31:44.040Z,12.60
2023-03-19T03:32:44.392Z,14.80
2023-03-19T03:33:44.584Z,14.10
2023-03-19T03:34:44.901Z,13.00
2023-03-19T03:35:45.285Z,13.20
2023-03-19T03:36:45.426Z,13.00
2023-03-19T03:37:45.750Z,12.50
2023-03-19T03:38:46.060Z,12.90
2023-03-19T03:39:46.352Z,12.90
2023-03-19T03:40:46.670Z,14.20
2023-03-19T03:41:46.953Z,16.50
2023-03-19T03:42:47.243Z,12.10
2023-03-19T03:43:47.513Z,15.70
2023-03-19T03:44:47.870Z,16.70
2023-03-19T03:45:48.235Z,19.20
2023-03-19T03:46:48.547Z,15.00
2023-03-19T03:47:48.816Z,14.10
2023-03-19T03:48:49.098Z,16.50
2023-03-19T03:49:49.404Z,15.60
2023-03-19T03:50:49.727Z,14.20
2023-03-19T03:51:50.016Z,14.60
2023-03-19T03:52:50.315Z,14.40
2023-03-19T03:53:50.570Z,14.40
2023-03-19T03:54:50.908Z,14.00
2023-03-19T03:55:51.230Z,13.30
2023-03-19T03:56:51.549Z,14.00
2023-03-19T03:57:51.852Z,12.60
2023-03-19T03:58:52.116Z,13.80
2023-03-19T03:59:52.476Z,14.80
2023-03-19T04:00:52.753Z,14.30
2023-03-19T04:01:53.102Z,15.50
2023-03-19T04:02:53.443Z,15.00
2023-03-19T04:03:53.738Z,13.60
2023-03-19T04:04:54.077Z,17.10
2023-03-19T04:05:54.334Z,14.70
2023-03-19T04:06:54.710Z,12.60
2023-03-19T04:07:54.857Z,13.80
2023-03-19T04:08:55.208Z,13.40
2023-03-19T04:09:55.437Z,12.40
2023-03-19T04:10:55.733Z,14.00
2023-03-19T04:11:56.036Z,13.80
2023-03-19T04:12:56.319Z,12.80
2023-03-19T04:13:56.612Z,12.70
2023-03-19T04:14:56.943Z,12.50
2023-03-19T04:15:57.305Z,14.90
2023-03-19T04:16:57.686Z,13.20
2023-03-19T04:17:57.879Z,12.80
2023-03-19T04:18:58.203Z,13.30
2023-03-19T04:19:58.459Z,15.90
2023-03-19T04:20:59.100Z,14.10
2023-03-19T04:21:59.071Z,12.80
2023-03-19T04:22:59.395Z,13.20
2023-03-19T04:23:59.666Z,13.00
2023-03-19T04:25:00.001Z,14.50
2023-03-19T04:26:00.313Z,12.80
2023-03-19T04:27:00.633Z,13.20
2023-03-19T04:28:00.950Z,12.80
2023-03-19T04:29:01.245Z,13.50
2023-03-19T04:30:01.549Z,13.20
2023-03-19T04:31:01.973Z,13.70
2023-03-19T04:32:02.180Z,14.90
2023-03-19T04:33:02.517Z,13.60
2023-03-19T04:34:02.754Z,13.20
2023-03-19T04:35:02.945Z,16.40
2023-03-19T04:36:03.277Z,13.30
2023-03-19T04:37:03.486Z,13.00
2023-03-19T04:38:03.787Z,13.40
2023-03-19T04:39:04.077Z,13.90
2023-03-19T04:40:04.452Z,13.60
2023-03-19T04:41:04.729Z,12.90
2023-03-19T04:42:05.032Z,13.10
2023-03-19T04:43:05.311Z,12.90
2023-03-19T04:44:05.614Z,13.50
2023-03-19T04:45:05.920Z,13.70
2023-03-19T04:46:06.615Z,14.30
2023-03-19T04:47:06.480Z,13.90
2023-03-19T04:48:06.789Z,14.00
2023-03-19T04:49:07.057Z,13.10
2023-03-19T04:50:07.415Z,12.50
2023-03-19T04:51:07.716Z,14.40
2023-03-19T04:52:07.997Z,13.00
2023-03-19T04:53:08.322Z,12.10
2023-03-19T04:54:08.605Z,11.20
2023-03-19T04:55:09.308Z,12.80
2023-03-19T04:56:09.252Z,13.50
2023-03-19T04:57:09.566Z,12.30
2023-03-19T04:58:09.904Z,12.00
2023-03-19T04:59:10.185Z,14.30
2023-03-19T05:00:10.515Z,14.00
2023-03-19T05:01:10.871Z,11.70
2023-03-19T05:02:11.084Z,14.30
2023-03-19T05:03:11.377Z,15.10
2023-03-19T05:04:11.719Z,12.70
2023-03-19T05:05:12.037Z,12.90
2023-03-19T05:06:12.355Z,13.10
2023-03-19T05:07:12.671Z,14.10
2023-03-19T05:08:12.912Z,11.80
2023-03-19T05:09:13.232Z,12.10
2023-03-19T05:10:13.580Z,16.40
2023-03-19T05:11:13.886Z,11.80
2023-03-19T05:12:14.125Z,13.60
2023-03-19T05:13:14.491Z,13.20
2023-03-19T05:14:14.768Z,12.70
2023-03-19T05:15:14.994Z,11.70
2023-03-19T05:16:15.771Z,12.70
2023-03-19T05:17:15.505Z,13.00
2023-03-19T05:18:15.745Z,12.30
2023-03-19T05:19:15.948Z,12.30
2023-03-19T05:20:16.214Z,14.20
2023-03-19T05:21:16.590Z,12.50
2023-03-19T05:22:16.829Z,15.50
2023-03-19T05:23:17.190Z,12.20
2023-03-19T05:24:17.432Z,14.90
2023-03-19T05:25:17.708Z,13.50
2023-03-19T05:26:17.928Z,14.10
2023-03-19T05:27:18.176Z,13.80
2023-03-19T05:28:18.406Z,12.50
2023-03-19T05:29:18.711Z,13.10
2023-03-19T05:30:18.965Z,13.80
2023-03-19T05:31:19.180Z,11.30
2023-03-19T05:32:19.408Z,14.70
2023-03-19T05:33:19.766Z,12.60
2023-03-19T05:34:20.022Z,11.90
2023-03-19T05:35:21.179Z,11.90
2023-03-19T05:36:20.586Z,11.70
2023-03-19T05:37:20.911Z,12.10
2023-03-19T05:38:21.073Z,12.10
2023-03-19T05:39:21.315Z,13.80
2023-03-19T05:40:21.647Z,13.40
2023-03-19T05:41:21.893Z,13.60
2023-03-19T05:42:22.172Z,13.00
2023-03-19T05:43:22.426Z,13.70
2023-03-19T05:44:22.644Z,14.60
2023-03-19T05:45:24.326Z,14.40
2023-03-19T05:46:23.166Z,14.30
2023-03-19T05:47:23.367Z,12.70
2023-03-19T05:48:23.725Z,13.00
2023-03-19T05:49:24.011Z,13.50
2023-03-19T05:50:25.171Z,13.60
2023-03-19T05:51:24.585Z,12.30
2023-03-19T05:52:24.838Z,13.60
2023-03-19T05:53:25.058Z,11.40
2023-03-19T05:54:25.292Z,13.00
2023-03-19T05:55:25.642Z,14.10
2023-03-19T05:56:25.903Z,14.00
2023-03-19T05:57:26.174Z,14.20
2023-03-19T05:58:26.413Z,11.90
2023-03-19T05:59:26.626Z,14.00
2023-03-19T06:00:27.838Z,14.80
2023-03-19T06:01:27.357Z,13.10
2023-03-19T06:02:27.688Z,14.20
2023-03-19T06:03:27.921Z,12.20
2023-03-19T06:04:28.147Z,12.60
2023-03-19T06:05:28.382Z,13.10
2023-03-19T06:06:28.601Z,13.30
2023-03-19T06:07:29.801Z,12.10
2023-03-19T06:08:30.222Z,12.40
2023-03-19T06:09:29.790Z,15.20
2023-03-19T06:10:29.891Z,16.40
2023-03-19T06:11:30.711Z,14.00
2023-03-19T06:12:30.391Z,13.70
2023-03-19T06:13:30.659Z,13.40
2023-03-19T06:14:30.907Z,13.10
2023-03-19T06:15:31.383Z,14.70
2023-03-19T06:16:31.413Z,12.10
2023-03-19T06:17:31.753Z,12.80
2023-03-19T06:18:32.018Z,12.70
2023-03-19T06:19:32.265Z,13.20
2023-03-19T06:20:32.918Z,14.20
2023-03-19T06:21:32.765Z,13.30
2023-03-19T06:22:33.137Z,14.50
2023-03-19T06:23:33.744Z,10.90
2023-03-19T06:24:33.600Z,12.00
2023-03-19T06:25:33.886Z,11.80
2023-03-19T06:26:34.177Z,13.50
2023-03-19T06:27:35.318Z,14.90
2023-03-19T06:28:34.678Z,12.50
2023-03-19T06:29:35.030Z,13.60
2023-03-19T06:30:35.512Z,12.10
2023-03-19T06:31:35.671Z,13.30
2023-03-19T06:32:35.896Z,14.20
2023-03-19T06:33:36.129Z,13.30
2023-03-19T06:34:36.411Z,13.70
2023-03-19T06:35:36.756Z,13.30
2023-03-19T06:36:37.006Z,14.00
2023-03-19T06:37:37.229Z,12.40
2023-03-19T06:38:37.485Z,14.10
2023-03-19T06:39:37.771Z,11.40
2023-03-19T06:40:37.973Z,12.70
2023-03-19T06:41:38.231Z,12.40
2023-03-19T06:42:38.464Z,14.10
2023-03-19T06:43:38.720Z,11.70
2023-03-19T06:44:38.938Z,14.70
2023-03-19T06:45:39.252Z,11.30
2023-03-19T06:46:39.449Z,13.10
2023-03-19T06:47:39.710Z,12.30
2023-03-19T06:48:40.017Z,13.40
2023-03-19T06:49:40.303Z,14.00
2023-03-19T06:50:40.647Z,15.70
2023-03-19T06:51:41.175Z,14.60
2023-03-19T06:52:41.238Z,11.60
2023-03-19T06:53:41.515Z,12.80
2023-03-19T06:54:41.864Z,15.70
2023-03-19T06:55:42.055Z,14.60
2023-03-19T06:56:42.454Z,11.40
2023-03-19T06:57:42.680Z,13.40
2023-03-19T06:58:43.015Z,15.10
2023-03-19T06:59:43.202Z,14.10
2023-03-19T07:00:43.581Z,12.40
2023-03-19T07:01:43.832Z,12.70
2023-03-19T07:02:44.024Z,15.10
2023-03-19T07:03:44.439Z,14.80
2023-03-19T07:04:45.455Z,15.40
2023-03-19T07:05:45.646Z,14.10
2023-03-19T07:06:45.159Z,14.70
2023-03-19T07:07:45.394Z,12.30
2023-03-19T07:08:45.680Z,13.00
2023-03-19T07:09:46.008Z,15.90
2023-03-19T07:10:46.277Z,13.30
2023-03-19T07:11:46.572Z,12.10
2023-03-19T07:12:46.793Z,13.20
2023-03-19T07:13:47.974Z,13.50
2023-03-19T07:14:47.505Z,11.50
2023-03-19T07:15:47.774Z,14.00
2023-03-19T07:16:48.135Z,14.10
2023-03-19T07:17:48.325Z,12.90
2023-03-19T07:18:48.573Z,12.50
2023-03-19T07:19:49.274Z,11.40
2023-03-19T07:20:49.135Z,13.60
2023-03-19T07:21:49.388Z,10.80
2023-03-19T07:22:49.780Z,13.10
2023-03-19T07:23:50.046Z,12.20
2023-03-19T07:24:50.254Z,11.70
2023-03-19T07:25:50.506Z,11.80
2023-03-19T07:26:50.754Z,10.80
2023-03-19T07:27:51.014Z,12.20
2023-03-19T07:28:51.265Z,11.10
2023-03-19T07:29:51.538Z,13.40
2023-03-19T07:30:51.817Z,11.70
2023-03-19T07:31:52.108Z,10.90
2023-03-19T07:32:52.467Z,14.40
2023-03-19T07:33:52.705Z,11.20
2023-03-19T07:34:52.995Z,12.60
2023-03-19T07:35:54.620Z,12.10
2023-03-19T07:36:54.409Z,11.60
2023-03-19T07:37:54.806Z,12.90
2023-03-19T07:38:54.080Z,12.60
2023-03-19T07:39:54.311Z,12.20
2023-03-19T07:41:01.923Z,12.70
2023-03-19T07:41:55.845Z,13.60
2023-03-19T07:42:55.124Z,13.30
2023-03-19T07:43:55.433Z,14.40
2023-03-19T07:44:55.611Z,12.10
2023-03-19T07:45:56.051Z,13.90
2023-03-19T07:46:56.305Z,12.30
2023-03-19T07:47:56.533Z,12.60
2023-03-19T07:48:56.810Z,14.70
2023-03-19T07:49:57.099Z,13.50
2023-03-19T07:50:57.352Z,15.00
2023-03-19T07:51:57.662Z,12.90
2023-03-19T07:52:57.933Z,11.90
2023-03-19T07:53:58.531Z,11.40
2023-03-19T07:54:58.400Z,11.40
2023-03-19T07:55:58.655Z,11.60
2023-03-19T07:56:58.911Z,11.80
2023-03-19T07:57:59.162Z,13.20
2023-03-19T07:58:59.450Z,12.60
2023-03-19T07:59:59.865Z,12.40
2023-03-19T08:01:00.302Z,11.90
2023-03-19T08:02:00.909Z,12.70
2023-03-19T08:03:00.466Z,14.00
2023-03-19T08:04:00.772Z,11.90
2023-03-19T08:05:00.987Z,13.50
2023-03-19T08:06:01.221Z,19.10
2023-03-19T08:07:01.493Z,14.20
2023-03-19T08:08:02.036Z,13.70
2023-03-19T08:09:01.937Z,12.10
2023-03-19T08:10:02.195Z,12.10
2023-03-19T08:11:03.441Z,11.80
2023-03-19T08:12:02.784Z,13.10
2023-03-19T08:13:02.968Z,10.60
2023-03-19T08:14:03.261Z,12.80
2023-03-19T08:15:03.522Z,11.00
2023-03-19T08:16:03.818Z,9.60
2023-03-19T08:17:04.614Z,11.30
2023-03-19T08:18:04.416Z,11.10
2023-03-19T08:19:04.818Z,11.50
2023-03-19T08:20:31.528Z,12.70
2023-03-19T08:21:14.308Z,16.40
2023-03-19T08:22:05.566Z,11.50
2023-03-19T08:23:05.832Z,13.00
2023-03-19T08:24:07.782Z,12.40
2023-03-19T08:25:06.402Z,10.90
2023-03-19T08:26:06.669Z,10.90
2023-03-19T08:27:06.928Z,12.30
2023-03-19T08:28:07.265Z,12.10
2023-03-19T08:29:07.513Z,11.00
2023-03-19T08:30:07.747Z,12.90
2023-03-19T08:31:08.202Z,12.50
2023-03-19T08:32:08.252Z,10.60
2023-03-19T08:33:08.905Z,9.40
2023-03-19T08:34:08.824Z,11.00
2023-03-19T08:35:09.511Z,12.40
2023-03-19T08:36:09.651Z,11.30
2023-03-19T08:37:09.802Z,11.30
2023-03-19T08:38:10.666Z,10.70
2023-03-19T08:39:10.111Z,14.70
2023-03-19T08:40:10.343Z,11.20
2023-03-19T08:41:11.539Z,11.30
2023-03-19T08:42:12.152Z,14.30
2023-03-19T08:43:13.869Z,11.50
2023-03-19T08:44:14.746Z,15.20
2023-03-19T08:45:11.734Z,12.90
2023-03-19T08:46:12.575Z,10.70
2023-03-19T08:47:12.285Z,10.50
2023-03-19T08:48:12.555Z,11.60
2023-03-19T08:49:12.834Z,14.50
2023-03-19T08:50:13.130Z,14.70
2023-03-19T08:51:13.384Z,13.00
2023-03-19T08:52:13.711Z,11.00
2023-03-19T08:53:13.968Z,10.90
2023-03-19T08:54:14.293Z,8.70
2023-03-19T08:55:14.492Z,10.70
2023-03-19T08:56:14.768Z,11.70
2023-03-19T08:57:17.216Z,11.50
2023-03-19T08:58:16.206Z,9.50
2023-03-19T08:59:15.781Z,10.30
2023-03-19T09:00:15.920Z,11.80
2023-03-19T09:01:16.185Z,8.50
2023-03-19T09:02:16.453Z,9.30
2023-03-19T09:03:22.129Z,10.50
2023-03-19T09:04:17.011Z,11.40
2023-03-19T09:05:17.227Z,10.40
2023-03-19T09:06:17.524Z,9.90
2023-03-19T09:07:17.774Z,12.20
2023-03-19T09:08:18.276Z,9.20
2023-03-19T09:09:18.329Z,9.10
2023-03-19T09:10:18.571Z,11.50
2023-03-19T09:11:18.838Z,9.90
2023-03-19T09:12:20.109Z,10.50
2023-03-19T09:13:19.308Z,10.90
2023-03-19T09:14:19.604Z,11.90
2023-03-19T09:15:19.840Z,10.30
2023-03-19T09:16:20.142Z,9.40
2023-03-19T09:17:20.343Z,11.50
2023-03-19T09:18:20.658Z,11.20
2023-03-19T09:19:20.941Z,12.20
2023-03-19T09:20:21.264Z,11.60
2023-03-19T09:21:21.893Z,11.70
2023-03-19T09:22:21.732Z,9.70
2023-03-19T09:23:22.250Z,11.10
2023-03-19T09:24:22.563Z,9.90
2023-03-19T09:25:22.640Z,9.50
2023-03-19T09:26:22.733Z,9.00
2023-03-19T09:27:23.031Z,9.60
2023-03-19T09:28:23.201Z,9.90
2023-03-19T09:29:23.508Z,9.20
2023-03-19T09:30:23.729Z,10.90
2023-03-19T09:31:24.573Z,9.80
2023-03-19T09:32:24.267Z,10.20
2023-03-19T09:33:24.548Z,9.10
2023-03-19T09:34:24.828Z,8.70
2023-03-19T09:35:25.145Z,9.30
2023-03-19T09:36:25.380Z,11.40
2023-03-19T09:37:25.635Z,10.50
2023-03-19T09:38:25.917Z,10.60
2023-03-19T09:39:26.153Z,9.60
2023-03-19T09:40:26.513Z,9.00
2023-03-19T09:41:26.890Z,10.00
2023-03-19T09:42:27.161Z,9.40
2023-03-19T09:43:27.414Z,8.30
2023-03-19T09:44:27.696Z,10.40
2023-03-19T09:45:27.891Z,9.60
2023-03-19T09:46:28.312Z,9.50
2023-03-19T09:47:28.554Z,8.90
2023-03-19T09:48:28.885Z,10.10
2023-03-19T09:49:29.117Z,10.00
2023-03-19T09:50:29.369Z,9.00
2023-03-19T09:51:29.668Z,8.70
2023-03-19T09:52:29.961Z,11.30
2023-03-19T09:53:31.538Z,9.10
2023-03-19T09:54:30.555Z,10.60
2023-03-19T09:55:38.058Z,10.50
2023-03-19T09:56:31.083Z,8.20
2023-03-19T09:57:31.265Z,13.10
2023-03-19T09:58:31.509Z,8.50
2023-03-19T09:59:31.784Z,9.40
2023-03-19T10:00:33.300Z,9.30
2023-03-19T10:01:40.249Z,9.00
2023-03-19T10:02:32.534Z,8.60
2023-03-19T10:03:36.376Z,10.10
2023-03-19T10:04:33.099Z,9.00
2023-03-19T10:05:35.552Z,9.00
2023-03-19T10:06:33.601Z,9.80
2023-03-19T10:07:33.830Z,8.10
2023-03-19T10:08:34.094Z,10.20
2023-03-19T10:09:35.281Z,8.80
2023-03-19T10:10:40.582Z,9.20
2023-03-19T10:11:35.200Z,10.30
2023-03-19T10:12:35.175Z,8.90
2023-03-19T10:13:35.545Z,9.40
2023-03-19T10:14:35.720Z,8.90
2023-03-19T10:15:36.701Z,9.20
2023-03-19T10:16:36.640Z,10.00
2023-03-19T10:17:39.305Z,8.20
2023-03-19T10:18:37.915Z,8.60
2023-03-19T10:19:41.359Z,11.00
2023-03-19T10:20:37.915Z,8.70
2023-03-19T10:21:38.171Z,10.40
2023-03-19T10:22:37.995Z,8.60
2023-03-19T10:23:38.225Z,10.90
2023-03-19T10:24:38.521Z,9.40
2023-03-19T10:25:41.488Z,8.80
2023-03-19T10:26:39.145Z,7.80
2023-03-19T10:27:39.375Z,8.40
2023-03-19T10:28:40.560Z,8.70
2023-03-19T10:29:39.960Z,7.80
2023-03-19T10:30:40.433Z,10.80
2023-03-19T10:31:40.627Z,8.60
2023-03-19T10:32:40.921Z,11.40
2023-03-19T10:33:41.299Z,7.60
2023-03-19T10:34:43.004Z,8.50
2023-03-19T10:35:42.096Z,8.80
2023-03-19T10:36:43.867Z,8.60
2023-03-19T10:37:52.072Z,8.90
2023-03-19T10:38:42.836Z,9.50
2023-03-19T10:39:42.890Z,8.50
2023-03-19T10:40:43.167Z,10.00
2023-03-19T10:41:45.887Z,9.80
2023-03-19T10:42:43.735Z,8.80
2023-03-19T10:43:44.220Z,8.50
2023-03-19T10:44:44.331Z,10.20
2023-03-19T10:45:52.331Z,9.40
2023-03-19T10:46:44.845Z,11.00
2023-03-19T10:47:50.546Z,8.40
2023-03-19T10:48:47.232Z,9.90
2023-03-19T10:49:46.866Z,10.40
2023-03-19T10:50:47.382Z,8.20
2023-03-19T10:51:46.222Z,8.20
2023-03-19T10:52:46.486Z,8.30
2023-03-19T10:53:46.794Z,9.40
2023-03-19T10:54:47.036Z,8.60
2023-03-19T10:55:47.321Z,10.40
2023-03-19T10:56:47.720Z,8.50
2023-03-19T10:57:47.992Z,9.80
2023-03-19T10:58:48.207Z,8.20
2023-03-19T10:59:48.448Z,8.80
2023-03-19T11:00:49.863Z,9.30
2023-03-19T11:01:49.058Z,7.40
2023-03-19T11:02:49.249Z,10.70
2023-03-19T11:03:49.750Z,9.70
2023-03-19T11:04:49.886Z,10.60
2023-03-19T11:05:50.112Z,10.30
2023-03-19T11:06:50.427Z,8.70
2023-03-19T11:07:51.696Z,8.00
2023-03-19T11:08:50.976Z,8.10
2023-03-19T11:09:52.136Z,11.20
2023-03-19T11:10:51.605Z,11.50
2023-03-19T11:11:51.885Z,9.40
2023-03-19T11:12:52.114Z,12.40
2023-03-19T11:13:52.375Z,11.20
2023-03-19T11:14:52.661Z,8.70
2023-03-19T11:15:53.046Z,8.80
2023-03-19T11:16:53.284Z,11.10
2023-03-19T11:17:53.578Z,11.60
2023-03-19T11:18:53.811Z,7.60
2023-03-19T11:19:54.204Z,10.20
2023-03-19T11:20:54.441Z,10.00
2023-03-19T11:21:54.713Z,14.90
2023-03-19T11:22:55.928Z,9.70
2023-03-19T11:23:57.548Z,20.20
2023-03-19T11:24:55.534Z,9.30
2023-03-19T11:25:55.838Z,20.00
2023-03-19T11:26:56.092Z,11.30
2023-03-19T11:27:56.433Z,11.90
2023-03-19T11:28:57.221Z,11.80
2023-03-19T11:29:56.706Z,11.40
2023-03-19T11:30:57.042Z,8.10
2023-03-19T11:31:57.311Z,9.60
2023-03-19T11:32:57.619Z,7.90
2023-03-19T11:33:57.850Z,9.00
2023-03-19T11:34:58.086Z,8.80
2023-03-19T11:35:58.419Z,9.00
2023-03-19T11:36:58.649Z,10.30
2023-03-19T11:37:58.919Z,9.60
2023-03-19T11:39:00.513Z,8.90
2023-03-19T11:39:59.450Z,10.60
2023-03-19T11:41:00.026Z,8.40
2023-03-19T11:42:00.014Z,10.40
2023-03-19T11:43:01.685Z,10.20
2023-03-19T11:44:00.990Z,8.20
2023-03-19T11:45:00.847Z,9.60
2023-03-19T11:46:01.576Z,8.50
2023-03-19T11:47:01.425Z,8.90
2023-03-19T11:48:01.858Z,8.70
2023-03-19T11:49:02.015Z,8.90
2023-03-19T11:50:02.543Z,8.70
2023-03-19T11:51:02.624Z,10.90
2023-03-19T11:52:03.088Z,8.50
2023-03-19T11:53:03.910Z,8.40
2023-03-19T11:54:04.387Z,10.10
2023-03-19T11:55:03.723Z,8.80
2023-03-19T11:56:04.189Z,9.30
2023-03-19T11:57:04.212Z,8.10
2023-03-19T11:58:04.458Z,9.80
2023-03-19T11:59:04.732Z,9.40
2023-03-19T12:00:06.005Z,9.30
2023-03-19T12:01:05.198Z,10.10
2023-03-19T12:02:05.483Z,9.10
2023-03-19T12:03:05.992Z,8.60
2023-03-19T12:04:06.803Z,8.70
2023-03-19T12:05:06.510Z,9.40
2023-03-19T12:06:07.505Z,9.40
2023-03-19T12:07:06.909Z,8.90
2023-03-19T12:08:07.194Z,11.70
2023-03-19T12:09:07.437Z,9.80
2023-03-19T12:10:07.759Z,9.30
2023-03-19T12:11:08.052Z,10.50
2023-03-19T12:12:08.506Z,9.70
2023-03-19T12:13:08.921Z,10.00
2023-03-19T12:14:08.850Z,12.90
2023-03-19T12:15:10.565Z,8.30
2023-03-19T12:16:09.843Z,9.70
2023-03-19T12:17:10.152Z,15.20
2023-03-19T12:18:10.713Z,12.80
2023-03-19T12:19:10.229Z,10.40
2023-03-19T12:20:10.522Z,8.80
2023-03-19T12:21:10.796Z,8.80
2023-03-19T12:22:11.315Z,11.10
2023-03-19T12:23:11.792Z,10.30
2023-03-19T12:24:17.386Z,11.20
2023-03-19T12:25:22.505Z,9.10
2023-03-19T12:26:12.726Z,10.30
2023-03-19T12:27:12.711Z,11.30
2023-03-19T12:28:13.761Z,9.50
2023-03-19T12:29:13.289Z,8.00
2023-03-19T12:30:13.458Z,10.60
2023-03-19T12:31:13.649Z,9.10
2023-03-19T12:32:13.856Z,9.60
2023-03-19T12:33:14.466Z,10.90
2023-03-19T12:34:15.061Z,9.70
2023-03-19T12:35:15.185Z,9.20
2023-03-19T12:36:15.819Z,10.00
2023-03-19T12:37:15.428Z,10.70
2023-03-19T12:38:15.519Z,11.40
2023-03-19T12:39:16.061Z,11.60
2023-03-19T12:40:16.238Z,10.60
2023-03-19T12:41:16.832Z,9.30
2023-03-19T12:42:17.511Z,12.80
2023-03-19T12:43:20.865Z,14.00
2023-03-19T12:44:18.448Z,18.50
2023-03-19T12:45:17.437Z,13.90
2023-03-19T12:46:17.750Z,15.60
2023-03-19T12:47:18.244Z,25.30
2023-03-19T12:48:23.158Z,29.00
2023-03-19T12:49:18.427Z,28.10
2023-03-19T12:50:18.669Z,24.20
2023-03-19T12:51:19.031Z,26.60
2023-03-19T12:52:19.261Z,26.00
2023-03-19T12:53:19.482Z,21.00
2023-03-19T12:54:19.801Z,24.50
2023-03-19T12:55:20.093Z,20.20
2023-03-19T12:56:20.300Z,20.50
2023-03-19T12:57:20.583Z,17.60
2023-03-19T12:58:20.831Z,27.30
2023-03-19T12:59:21.118Z,23.10
2023-03-19T13:00:21.448Z,22.60
2023-03-19T13:01:22.324Z,14.70